Time;durP1;ratioP1;P1;durP2;ratioP2;P2;SDS_P1;SDS_P2;PMS_P1;PMS_P2;Temp;Humidity;BMP_temperature;BMP_pressure;BME280_temperature;BME280_humidity;BME280_pressure;Samples;Min_cycle;Max_cycle;Signal;HPM_P1;HPM_P2
2024/04/25 00:00:08;;;;;;;2.90;2.60;;;23.20;51.90;;;;;;5450383;26;20258;-69
2024/04/25 00:02:34;;;;;;;3.13;2.43;;;23.20;51.90;;;;;;5447338;26;20288;-69
2024/04/25 00:04:59;;;;;;;3.50;3.20;;;23.20;51.90;;;;;;5414248;26;20565;-70
2024/04/25 00:07:25;;;;;;;4.00;2.60;;;23.20;51.90;;;;;;5414610;26;20217;-70
2024/04/25 00:09:50;;;;;;;3.40;2.53;;;23.20;51.90;;;;;;5414373;26;20224;-70
2024/04/25 00:12:16;;;;;;;2.43;2.20;;;23.20;51.90;;;;;;5414559;26;20258;-69
2024/04/25 00:14:41;;;;;;;4.37;2.63;;;23.20;51.90;;;;;;5447679;26;20270;-70
2024/04/25 00:17:07;;;;;;;3.17;2.73;;;23.20;51.90;;;;;;5450113;26;20223;-69
2024/04/25 00:19:33;;;;;;;3.03;2.27;;;23.20;51.90;;;;;;5418101;26;20299;-70
2024/04/25 00:21:58;;;;;;;3.27;2.43;;;23.20;51.90;;;;;;5450076;26;20215;-70
2024/04/25 00:24:24;;;;;;;3.03;2.43;;;23.10;51.80;;;;;;5420270;26;20889;-70
2024/04/25 00:26:50;;;;;;;4.90;2.77;;;23.10;51.80;;;;;;5414104;26;20226;-70
2024/04/25 00:29:15;;;;;;;2.70;2.27;;;23.20;52.20;;;;;;5413859;26;20686;-69
2024/04/25 00:31:41;;;;;;;2.87;2.37;;;23.20;51.90;;;;;;5413945;26;20228;-69
2024/04/25 00:34:06;;;;;;;4.73;2.90;;;23.10;51.80;;;;;;5445411;26;20235;-69
2024/04/25 00:36:32;;;;;;;2.60;2.40;;;23.20;51.90;;;;;;5449982;26;20219;-68
2024/04/25 00:38:59;;;;;;;2.90;2.50;;;23.20;51.90;;;;;;5449704;26;20283;-70
2024/04/25 00:41:25;;;;;;;4.10;2.70;;;23.10;51.80;;;;;;5449858;26;20222;-70
2024/04/25 00:43:51;;;;;;;3.83;2.53;;;23.10;51.90;;;;;;5421343;26;20450;-69
2024/04/25 00:46:18;;;;;;;4.37;2.50;;;23.10;51.80;;;;;;5413715;26;20220;-70
2024/04/25 00:48:44;;;;;;;2.00;1.73;;;23.10;51.80;;;;;;5413747;26;20530;-70
2024/04/25 00:51:11;;;;;;;3.90;2.50;;;23.10;51.80;;;;;;5412652;26;20450;-70
2024/04/25 00:53:37;;;;;;;3.17;2.03;;;23.10;51.80;;;;;;5388829;26;20511;-70
2024/04/25 00:56:03;;;;;;;2.80;2.10;;;23.10;51.80;;;;;;5413562;26;20562;-70
2024/04/25 00:58:30;;;;;;;2.57;2.00;;;23.10;51.80;;;;;;5413511;26;20924;-70
2024/04/25 01:00:57;;;;;;;2.70;2.20;;;23.10;51.80;;;;;;5413494;26;21069;-70
2024/04/25 01:03:23;;;;;;;3.00;2.57;;;23.10;51.80;;;;;;5433214;26;20569;-70
2024/04/25 01:05:51;;;;;;;3.10;2.10;;;23.10;51.80;;;;;;5449400;26;21042;-68
2024/04/25 01:08:17;;;;;;;2.57;2.00;;;23.10;51.80;;;;;;5449197;26;20465;-69
2024/04/25 01:10:43;;;;;;;3.50;2.40;;;23.10;51.80;;;;;;5449260;26;20504;-70
2024/04/25 01:13:09;;;;;;;3.20;2.47;;;23.10;51.80;;;;;;5432813;26;20774;-69
2024/04/25 01:15:35;;;;;;;2.70;2.37;;;23.10;51.80;;;;;;5413109;26;20494;-70
2024/04/25 01:18:01;;;;;;;2.93;2.30;;;23.10;51.80;;;;;;5413276;26;20300;-70
2024/04/25 01:20:26;;;;;;;3.77;2.20;;;23.10;51.80;;;;;;5413253;26;20749;-70
2024/04/25 01:22:54;;;;;;;2.73;2.03;;;23.10;51.80;;;;;;5424520;26;20455;-70
2024/04/25 01:25:21;;;;;;;2.80;2.30;;;23.10;51.80;;;;;;5449025;26;20216;-69
2024/04/25 01:27:48;;;;;;;2.43;2.00;;;23.10;51.80;;;;;;5448714;26;20453;-69
2024/04/25 01:30:15;;;;;;;2.83;2.40;;;23.10;51.80;;;;;;5448834;26;20448;-69
2024/04/25 01:32:41;;;;;;;2.03;1.80;;;23.10;51.80;;;;;;5440194;26;20462;-70
2024/04/25 01:35:09;;;;;;;2.50;2.13;;;23.10;51.80;;;;;;5447827;26;20465;-70
2024/04/25 01:37:35;;;;;;;2.30;2.00;;;23.10;51.80;;;;;;5448780;26;20978;-70
2024/04/25 01:40:01;;;;;;;2.10;1.57;;;23.10;51.80;;;;;;5448743;26;20520;-70
2024/04/25 01:42:27;;;;;;;2.77;1.90;;;23.10;51.80;;;;;;5443798;26;20660;-71
2024/04/25 01:44:53;;;;;;;2.87;2.40;;;23.10;51.80;;;;;;5412793;26;20221;-70
2024/04/25 01:47:18;;;;;;;2.07;1.87;;;23.10;51.80;;;;;;5412575;26;20899;-69
2024/04/25 01:49:44;;;;;;;3.20;2.20;;;23.10;51.80;;;;;;5412558;26;20233;-70
2024/04/25 01:52:10;;;;;;;3.30;2.17;;;23.10;51.80;;;;;;5412619;26;20267;-70
2024/04/25 01:54:35;;;;;;;2.20;1.80;;;23.10;51.90;;;;;;5448197;26;20228;-70
2024/04/25 01:57:01;;;;;;;3.20;1.80;;;23.00;51.80;;;;;;5448369;26;20309;-70
2024/04/25 01:59:26;;;;;;;2.33;2.13;;;23.10;51.80;;;;;;5448381;26;20235;-70
2024/04/25 02:01:52;;;;;;;2.97;2.00;;;23.00;51.80;;;;;;5448289;26;20332;-68
2024/04/25 02:04:18;;;;;;;2.73;2.10;;;23.10;51.90;;;;;;5420028;26;20232;-70
2024/04/25 02:06:43;;;;;;;4.10;2.70;;;23.00;51.80;;;;;;5416019;26;20235;-69
2024/04/25 02:09:09;;;;;;;4.03;2.20;;;23.00;51.80;;;;;;5415858;26;20593;-69
2024/04/25 02:11:34;;;;;;;3.00;2.33;;;23.00;51.80;;;;;;5415985;26;20332;-69
2024/04/25 02:14:00;;;;;;;1.90;1.67;;;23.00;51.80;;;;;;5470628;26;20223;-71
2024/04/25 02:16:25;;;;;;;2.30;1.90;;;23.00;51.80;;;;;;5451848;26;20702;-69
2024/04/25 02:18:51;;;;;;;2.70;1.70;;;23.00;51.80;;;;;;5451834;26;20239;-70
2024/04/25 02:26:45;;;;;;;3.17;2.03;;;23.00;51.80;;;;;;5415806;26;21016;-70
2024/04/25 02:29:10;;;;;;;2.20;2.00;;;23.00;51.80;;;;;;5417546;26;20450;-69
2024/04/25 02:31:40;;;;;;;2.93;2.23;;;23.00;51.80;;;;;;5451451;26;20719;-70
2024/04/25 02:34:06;;;;;;;2.80;2.00;;;23.00;51.80;;;;;;5444648;26;20282;-70
2024/04/25 02:36:32;;;;;;;2.00;1.70;;;23.00;51.80;;;;;;5449301;26;20599;-68
2024/04/25 02:38:58;;;;;;;2.50;1.87;;;23.00;51.80;;;;;;5451004;26;20517;-70
2024/04/25 02:41:23;;;;;;;2.60;1.97;;;23.00;51.80;;;;;;5419384;26;20449;-71
2024/04/25 02:43:49;;;;;;;3.03;2.30;;;23.00;51.80;;;;;;5428750;26;20228;-69
2024/04/25 02:46:15;;;;;;;2.80;2.20;;;23.00;51.80;;;;;;5415332;26;20228;-70
2024/04/25 02:48:40;;;;;;;4.57;2.47;;;23.00;51.80;;;;;;5415258;26;20236;-69
2024/04/25 02:51:06;;;;;;;2.30;1.80;;;23.00;51.80;;;;;;5415377;26;20706;-70
2024/04/25 02:53:31;;;;;;;2.60;1.97;;;23.00;51.80;;;;;;5432766;26;20314;-69
2024/04/25 02:55:58;;;;;;;3.10;2.00;;;23.00;51.80;;;;;;5451307;26;20262;-69
2024/04/25 02:58:23;;;;;;;3.23;1.90;;;23.00;51.80;;;;;;5451281;26;20295;-70
2024/04/25 03:00:49;;;;;;;2.80;2.00;;;23.00;51.80;;;;;;5451259;26;20445;-70
2024/04/25 03:03:14;;;;;;;2.27;1.83;;;23.00;51.80;;;;;;5405951;26;20236;-70
2024/04/25 03:05:43;;;;;;;1.60;1.30;;;23.00;51.80;;;;;;5415255;26;20220;-69
2024/04/25 03:08:08;;;;;;;2.60;2.23;;;23.00;51.80;;;;;;5415028;26;20236;-70
2024/04/25 03:10:34;;;;;;;4.70;1.83;;;23.00;51.80;;;;;;5415200;26;20442;-70
2024/04/25 03:13:00;;;;;;;2.27;1.83;;;23.00;51.80;;;;;;5424002;26;20243;-70
2024/04/25 03:15:26;;;;;;;3.00;2.27;;;23.00;51.80;;;;;;5449775;26;20215;-70
2024/04/25 03:17:53;;;;;;;3.00;2.40;;;23.00;51.80;;;;;;5451090;26;21073;-70
2024/04/25 03:20:18;;;;;;;2.30;1.80;;;23.00;51.80;;;;;;5451008;26;20453;-70
2024/04/25 03:22:44;;;;;;;2.40;1.70;;;23.00;51.80;;;;;;5445741;26;20517;-69
2024/04/25 03:25:09;;;;;;;3.47;1.87;;;23.00;51.80;;;;;;5414829;26;20224;-70
2024/04/25 03:27:35;;;;;;;2.27;1.80;;;23.00;51.80;;;;;;5415193;26;20268;-71
2024/04/25 03:30:01;;;;;;;2.40;1.47;;;23.00;51.80;;;;;;5414928;26;20228;-70
2024/04/25 03:32:28;;;;;;;3.03;1.60;;;23.00;51.80;;;;;;5416976;26;20723;-70
2024/04/25 03:34:54;;;;;;;2.17;1.97;;;23.00;51.80;;;;;;5414758;26;20224;-70
2024/04/25 03:37:22;;;;;;;1.93;1.33;;;23.00;51.80;;;;;;5414764;26;21047;-70
2024/04/25 03:39:47;;;;;;;2.80;2.20;;;23.00;51.80;;;;;;5414601;26;20308;-69
2024/04/25 03:42:13;;;;;;;2.03;1.73;;;23.00;51.80;;;;;;5418264;26;20493;-70
2024/04/25 03:44:38;;;;;;;2.80;1.97;;;22.90;51.70;;;;;;5450606;26;20270;-70
2024/04/25 03:47:04;;;;;;;1.90;1.60;;;23.00;51.80;;;;;;5450452;26;20285;-70
2024/04/25 03:49:29;;;;;;;2.20;1.60;;;23.00;51.80;;;;;;5450486;26;20239;-70
2024/04/25 03:51:55;;;;;;;2.50;1.73;;;23.00;51.80;;;;;;5450627;26;20957;-70
2024/04/25 03:54:21;;;;;;;1.90;1.50;;;23.00;51.80;;;;;;5447503;26;20227;-70
2024/04/25 03:56:46;;;;;;;2.50;2.00;;;23.00;51.80;;;;;;5450607;26;20270;-68
2024/04/25 03:59:12;;;;;;;2.00;1.80;;;22.90;51.80;;;;;;5450436;26;20345;-69
2024/04/25 04:01:38;;;;;;;2.30;1.70;;;23.00;51.80;;;;;;5450513;26;20231;-70
2024/04/25 04:04:03;;;;;;;2.33;1.40;;;23.00;51.90;;;;;;5419924;26;20458;-70
2024/04/25 04:06:29;;;;;;;3.43;1.80;;;23.00;51.90;;;;;;5414522;26;20220;-70
2024/04/25 04:08:55;;;;;;;2.67;1.70;;;23.00;51.80;;;;;;5442336;26;20240;-70
2024/04/25 04:11:20;;;;;;;2.00;1.70;;;23.00;51.90;;;;;;5414660;26;20233;-70
2024/04/25 04:13:46;;;;;;;2.47;2.00;;;23.00;51.80;;;;;;5439318;26;20235;-69
2024/04/25 04:16:11;;;;;;;1.57;1.30;;;23.00;51.80;;;;;;5450526;26;20265;-69
2024/04/25 04:18:37;;;;;;;3.10;2.00;;;23.00;51.80;;;;;;5450149;26;20270;-70
2024/04/25 04:21:03;;;;;;;2.23;1.77;;;23.00;51.80;;;;;;5449805;26;20219;-70
2024/04/25 04:23:28;;;;;;;2.00;1.50;;;23.00;51.80;;;;;;5415411;26;20609;-69
2024/04/25 04:25:54;;;;;;;2.50;2.00;;;23.00;51.80;;;;;;5449804;26;20335;-68
2024/04/25 04:28:19;;;;;;;1.80;1.50;;;23.00;52.40;;;;;;5450206;26;20274;-70
2024/04/25 04:30:45;;;;;;;2.27;1.57;;;23.00;51.80;;;;;;5449999;26;20266;-70
2024/04/25 04:33:10;;;;;;;2.03;1.53;;;23.00;51.80;;;;;;5434346;26;20352;-70
2024/04/25 04:35:36;;;;;;;1.83;1.43;;;23.10;51.80;;;;;;5413873;26;20719;-69
2024/04/25 04:38:02;;;;;;;2.03;1.53;;;23.00;51.80;;;;;;5413597;26;20336;-70
2024/04/25 04:40:27;;;;;;;2.77;1.60;;;23.10;51.80;;;;;;5413998;26;20224;-69
2024/04/25 04:42:53;;;;;;;2.00;1.40;;;23.10;51.80;;;;;;5424296;26;20278;-69
2024/04/25 04:45:19;;;;;;;2.30;1.70;;;23.00;51.70;;;;;;5424405;26;20296;-70
2024/04/25 04:47:44;;;;;;;1.83;1.37;;;23.00;51.70;;;;;;5420092;26;20461;-70
2024/04/25 04:50:10;;;;;;;2.90;1.60;;;23.10;51.80;;;;;;5446981;26;20778;-70
2024/04/25 04:52:36;;;;;;;2.77;1.70;;;23.10;51.80;;;;;;5439763;26;20282;-69
2024/04/25 04:55:01;;;;;;;2.57;1.87;;;23.00;51.70;;;;;;5414553;26;20220;-70
2024/04/25 04:57:27;;;;;;;2.70;1.60;;;23.00;51.70;;;;;;5414700;26;20719;-68
2024/04/25 04:59:52;;;;;;;1.80;1.47;;;23.10;51.80;;;;;;5413654;26;20332;-70
2024/04/25 05:02:18;;;;;;;2.67;1.80;;;23.00;51.70;;;;;;5413579;26;20220;-70
2024/04/25 05:04:43;;;;;;;2.63;1.60;;;23.00;51.70;;;;;;5417498;26;20299;-70
2024/04/25 05:07:09;;;;;;;2.03;1.60;;;23.00;51.70;;;;;;5415480;26;20271;-70
2024/04/25 05:09:35;;;;;;;2.70;1.37;;;23.00;51.70;;;;;;5413334;26;20236;-69
2024/04/25 05:12:00;;;;;;;1.70;1.50;;;23.00;51.70;;;;;;5413630;26;20608;-70
2024/04/25 05:14:26;;;;;;;2.13;1.73;;;23.00;51.80;;;;;;5381986;26;20239;-69
2024/04/25 05:16:52;;;;;;;2.43;1.30;;;23.00;51.80;;;;;;5415553;26;20232;-69
2024/04/25 05:19:17;;;;;;;3.20;1.90;;;23.00;51.80;;;;;;5413798;26;20283;-69
2024/04/25 05:21:45;;;;;;;2.30;1.77;;;23.00;51.80;;;;;;5413315;26;20615;-68
2024/04/25 05:24:11;;;;;;;2.97;1.50;;;23.00;51.80;;;;;;5382078;26;20294;-70
2024/04/25 05:26:37;;;;;;;2.03;1.50;;;23.00;51.80;;;;;;5413140;26;20462;-68
2024/04/25 05:29:04;;;;;;;2.50;1.87;;;23.10;51.90;;;;;;5413213;26;20742;-68
2024/04/25 05:31:32;;;;;;;1.87;1.50;;;23.10;51.90;;;;;;5413401;26;20615;-69
2024/04/25 05:33:57;;;;;;;4.10;1.50;;;23.10;51.90;;;;;;5381890;26;20502;-69
2024/04/25 05:36:23;;;;;;;2.03;1.60;;;23.00;51.80;;;;;;5413245;26;20892;-69
2024/04/25 05:38:49;;;;;;;2.87;1.50;;;23.10;51.80;;;;;;5416128;26;20240;-69
2024/04/25 05:41:14;;;;;;;2.00;1.80;;;23.00;51.80;;;;;;5416621;26;20228;-69
2024/04/25 05:43:40;;;;;;;2.40;1.60;;;23.00;51.80;;;;;;5385685;26;20236;-67
2024/04/25 05:46:06;;;;;;;1.90;1.37;;;23.10;51.90;;;;;;5416622;26;20225;-69
2024/04/25 05:48:32;;;;;;;4.30;1.50;;;23.10;51.90;;;;;;5416700;26;20349;-68
2024/04/25 05:50:59;;;;;;;2.90;1.40;;;23.10;51.90;;;;;;5416687;26;20220;-69
2024/04/25 05:53:25;;;;;;;2.23;1.40;;;23.10;51.90;;;;;;5416545;26;20564;-68
2024/04/25 05:55:51;;;;;;;3.27;1.67;;;23.10;51.90;;;;;;5416367;26;20447;-70
2024/04/25 05:58:16;;;;;;;2.27;2.00;;;23.10;51.90;;;;;;5416223;26;20676;-69
2024/04/25 06:00:42;;;;;;;3.80;1.60;;;23.10;51.90;;;;;;5416352;26;20225;-68
2024/04/25 06:03:08;;;;;;;2.53;1.63;;;23.10;51.90;;;;;;5416150;26;20216;-68
2024/04/25 06:05:33;;;;;;;2.47;1.40;;;23.10;51.90;;;;;;5416391;26;20706;-68
2024/04/25 06:07:59;;;;;;;2.90;1.90;;;23.10;52.40;;;;;;5415737;26;20294;-69
2024/04/25 06:10:25;;;;;;;2.10;1.53;;;23.10;51.90;;;;;;5384355;26;20233;-69
2024/04/25 06:12:51;;;;;;;2.20;1.60;;;23.10;51.90;;;;;;5415984;26;20620;-69
2024/04/25 06:15:16;;;;;;;2.07;1.40;;;23.10;51.90;;;;;;5415761;26;20224;-68
2024/04/25 06:17:42;;;;;;;3.03;1.80;;;23.10;51.90;;;;;;5416064;26;20224;-70
2024/04/25 06:20:10;;;;;;;1.83;1.63;;;23.10;51.90;;;;;;5415998;26;20224;-67
2024/04/25 06:22:36;;;;;;;3.37;1.50;;;23.10;51.80;;;;;;5415918;26;20333;-69
2024/04/25 06:25:01;;;;;;;1.83;1.50;;;23.10;51.80;;;;;;5416210;26;20450;-68
2024/04/25 06:27:31;;;;;;;2.13;1.60;;;23.10;51.80;;;;;;5384472;26;20600;-69
2024/04/25 06:29:57;;;;;;;2.23;1.50;;;23.20;51.90;;;;;;5415867;26;20236;-69
2024/04/25 06:32:22;;;;;;;2.00;1.60;;;23.20;51.90;;;;;;5416065;26;20494;-69
2024/04/25 06:34:50;;;;;;;6.00;1.73;;;23.10;51.80;;;;;;5415608;26;20228;-69
2024/04/25 06:37:16;;;;;;;2.03;1.40;;;23.20;51.90;;;;;;5416087;26;21063;-69
2024/04/25 06:39:42;;;;;;;2.67;1.37;;;23.10;51.80;;;;;;5415790;26;20814;-70
2024/04/25 06:42:08;;;;;;;2.37;1.40;;;23.20;51.90;;;;;;5416269;26;20438;-68
2024/04/25 06:44:34;;;;;;;1.80;1.40;;;23.20;51.90;;;;;;5415881;26;20221;-68
2024/04/25 06:47:00;;;;;;;2.03;1.57;;;23.10;51.80;;;;;;5415944;26;20220;-69
2024/04/25 06:49:25;;;;;;;1.80;1.27;;;23.10;51.80;;;;;;5443282;26;20231;-68
2024/04/25 06:51:51;;;;;;;1.73;1.40;;;23.20;51.90;;;;;;5451800;26;21030;-69
2024/04/25 06:54:17;;;;;;;1.60;1.27;;;23.20;51.90;;;;;;5451679;26;20262;-68
2024/04/25 06:56:43;;;;;;;1.57;1.27;;;23.20;51.90;;;;;;5451596;26;20211;-70
2024/04/25 06:59:08;;;;;;;1.90;1.30;;;23.20;51.90;;;;;;5451520;26;20227;-69
2024/04/25 07:01:35;;;;;;;1.60;1.10;;;23.20;51.90;;;;;;5451660;26;20844;-69
2024/04/25 07:04:00;;;;;;;2.73;1.27;;;23.20;51.90;;;;;;5451437;26;20223;-69
2024/04/25 07:06:26;;;;;;;2.13;1.37;;;23.20;51.90;;;;;;5451669;26;20538;-69
2024/04/25 07:08:59;;;;;;;1.83;1.47;;;23.20;51.90;;;;;;5451602;26;20235;-69
2024/04/25 07:11:25;;;;;;;2.00;1.50;;;23.20;51.90;;;;;;5451877;26;20220;-69
2024/04/25 07:13:51;;;;;;;2.73;1.47;;;23.20;51.90;;;;;;5451810;26;20841;-69
2024/04/25 07:16:17;;;;;;;3.70;1.37;;;23.20;51.90;;;;;;5452173;26;20765;-69
2024/04/25 07:18:42;;;;;;;1.73;1.40;;;23.20;51.90;;;;;;5451606;26;20453;-70
2024/04/25 07:21:08;;;;;;;1.53;1.30;;;23.20;51.90;;;;;;5419645;26;20565;-69
2024/04/25 07:23:33;;;;;;;1.63;1.03;;;23.20;51.90;;;;;;5452306;26;20234;-69
2024/04/25 07:25:59;;;;;;;2.03;1.37;;;23.20;52.50;;;;;;5451471;26;20219;-67
2024/04/25 07:28:24;;;;;;;1.80;1.30;;;23.20;51.90;;;;;;5451066;26;20868;-68
2024/04/25 07:30:50;;;;;;;2.30;1.40;;;23.20;51.90;;;;;;5451328;26;20215;-69
2024/04/25 07:33:16;;;;;;;1.40;1.13;;;23.20;51.90;;;;;;5449447;26;21172;-69
2024/04/25 07:35:43;;;;;;;1.80;1.30;;;23.30;52.00;;;;;;5452995;26;20266;-70
2024/04/25 07:38:08;;;;;;;2.60;1.70;;;23.20;51.90;;;;;;5487515;26;20222;-69
2024/04/25 07:40:36;;;;;;;1.50;1.30;;;23.30;52.00;;;;;;5487674;26;20443;-68
2024/04/25 07:43:04;;;;;;;2.47;1.80;;;23.30;52.00;;;;;;5487838;26;20214;-69
2024/04/25 07:45:30;;;;;;;1.60;1.00;;;23.30;52.00;;;;;;5487641;26;20447;-69
2024/04/25 07:47:55;;;;;;;1.57;1.20;;;23.20;51.90;;;;;;5487451;26;20507;-69
2024/04/25 07:50:21;;;;;;;1.30;0.93;;;23.30;52.00;;;;;;5487613;26;20210;-68
2024/04/25 07:52:47;;;;;;;1.70;1.33;;;23.30;52.00;;;;;;5487608;26;20306;-69
2024/04/25 07:55:12;;;;;;;2.17;1.20;;;23.20;51.90;;;;;;5487634;26;20285;-69
2024/04/25 07:57:38;;;;;;;1.60;1.10;;;23.30;52.00;;;;;;5487383;26;20218;-68
2024/04/25 08:00:07;;;;;;;1.67;1.27;;;23.30;52.00;;;;;;5487216;26;20629;-69
2024/04/25 08:02:37;;;;;;;1.43;1.13;;;23.30;52.00;;;;;;5487590;26;20306;-69
2024/04/25 08:05:04;;;;;;;2.20;1.60;;;23.30;52.00;;;;;;5487826;26;20443;-70
2024/04/25 08:07:31;;;;;;;2.47;1.40;;;23.30;52.00;;;;;;5487579;26;20916;-69
2024/04/25 08:09:56;;;;;;;1.27;1.00;;;23.30;52.00;;;;;;5487837;26;20510;-69
2024/04/25 08:12:24;;;;;;;2.93;1.27;;;23.30;52.00;;;;;;5488197;26;20440;-69
2024/04/25 08:14:49;;;;;;;3.40;1.97;;;23.30;52.00;;;;;;5487322;26;20331;-68
2024/04/25 08:17:15;;;;;;;1.90;1.33;;;23.30;52.00;;;;;;5455598;26;20506;-69
2024/04/25 08:19:41;;;;;;;1.50;1.13;;;23.30;52.00;;;;;;5486758;26;20455;-69
2024/04/25 08:22:07;;;;;;;1.93;1.20;;;23.30;52.00;;;;;;5487614;26;20217;-69
2024/04/25 08:24:32;;;;;;;1.53;1.20;;;23.30;52.00;;;;;;5455636;26;20244;-69
2024/04/25 08:26:58;;;;;;;2.27;1.00;;;23.30;52.00;;;;;;5488068;26;20279;-67
2024/04/25 08:29:24;;;;;;;1.73;1.20;;;23.30;51.90;;;;;;5455771;26;20238;-68
2024/04/25 08:31:51;;;;;;;2.70;1.30;;;23.30;51.90;;;;;;5487137;26;20300;-68
2024/04/25 08:34:17;;;;;;;2.23;1.10;;;23.40;52.00;;;;;;5486882;26;20562;-67
2024/04/25 08:36:42;;;;;;;1.90;1.20;;;23.30;51.90;;;;;;5486345;26;20842;-67
2024/04/25 08:39:08;;;;;;;1.33;1.00;;;23.40;52.00;;;;;;5487053;26;20234;-67
2024/04/25 08:41:35;;;;;;;1.73;1.10;;;23.40;52.00;;;;;;5486927;26;20265;-68
2024/04/25 08:44:01;;;;;;;1.73;1.53;;;23.40;52.00;;;;;;5487576;26;20724;-69
2024/04/25 08:46:27;;;;;;;2.10;1.07;;;23.40;52.00;;;;;;5488114;26;20551;-69
2024/04/25 08:48:57;;;;;;;1.53;1.20;;;23.40;52.00;;;;;;5487352;26;20238;-69
2024/04/25 08:51:25;;;;;;;1.53;1.27;;;23.40;52.00;;;;;;5487321;26;20439;-69
2024/04/25 08:54:01;;;;;;;1.30;1.00;;;23.40;52.00;;;;;;5486819;26;20624;-69
2024/04/25 08:56:30;;;;;;;2.20;1.10;;;23.40;52.00;;;;;;5486541;26;20455;-68
2024/04/25 08:58:56;;;;;;;1.50;1.10;;;23.40;52.00;;;;;;5487157;26;20636;-68
2024/04/25 09:01:25;;;;;;;2.33;1.27;;;23.40;52.00;;;;;;5487092;26;20480;-69
2024/04/25 09:03:53;;;;;;;2.70;1.10;;;23.50;52.10;;;;;;5487481;26;20222;-69
2024/04/25 09:06:21;;;;;;;1.30;1.13;;;23.50;52.10;;;;;;5487372;26;20856;-67
2024/04/25 09:08:47;;;;;;;2.10;1.00;;;23.50;52.10;;;;;;5487102;26;20475;-69
2024/04/25 09:11:23;;;;;;;1.60;1.23;;;23.50;52.00;;;;;;5486987;26;20447;-69
2024/04/25 09:13:56;;;;;;;2.80;1.20;;;23.50;52.00;;;;;;5490227;26;20491;-69
2024/04/25 09:16:25;;;;;;;1.60;1.10;;;23.50;52.10;;;;;;5490727;26;20443;-69
2024/04/25 09:18:51;;;;;;;1.30;0.87;;;23.50;52.00;;;;;;5491051;26;20459;-68
2024/04/25 09:21:17;;;;;;;1.27;1.10;;;23.50;52.00;;;;;;5490079;26;20488;-69
2024/04/25 09:23:43;;;;;;;2.57;1.23;;;23.50;52.00;;;;;;5457643;26;20261;-69
2024/04/25 09:26:10;;;;;;;1.70;1.40;;;23.50;52.00;;;;;;5489767;26;20510;-69
2024/04/25 09:28:37;;;;;;;1.67;1.20;;;23.50;52.00;;;;;;5490279;26;20459;-67
2024/04/25 09:31:03;;;;;;;1.63;1.10;;;23.50;52.00;;;;;;5490719;26;21135;-69
2024/04/25 09:33:29;;;;;;;2.10;1.30;;;23.50;52.00;;;;;;5490384;26;20499;-68
2024/04/25 09:35:56;;;;;;;1.20;1.03;;;23.50;52.00;;;;;;5490787;26;20447;-68
2024/04/25 09:38:22;;;;;;;1.63;1.10;;;23.50;52.00;;;;;;5490852;26;20234;-69
2024/04/25 09:40:49;;;;;;;1.17;1.00;;;23.50;52.00;;;;;;5490359;26;20529;-68
2024/04/25 09:43:16;;;;;;;1.50;1.00;;;23.50;51.90;;;;;;5490726;26;20439;-68
2024/04/25 09:45:42;;;;;;;1.43;1.33;;;23.50;51.90;;;;;;5490776;26;20459;-68
2024/04/25 09:48:15;;;;;;;1.50;1.00;;;23.60;52.00;;;;;;5490101;26;20898;-68
2024/04/25 09:50:49;;;;;;;2.47;1.20;;;23.50;51.90;;;;;;5490456;26;20446;-68
2024/04/25 09:53:45;;;;;;;1.67;0.93;;;23.50;51.90;;;;;;5490096;26;20912;-68
2024/04/25 09:56:17;;;;;;;1.60;1.00;;;23.60;52.00;;;;;;5490361;26;20482;-69
2024/04/25 09:58:49;;;;;;;2.03;1.20;;;23.60;52.00;;;;;;5490280;26;20459;-68
2024/04/25 10:01:15;;;;;;;1.93;1.03;;;23.60;52.00;;;;;;5489033;26;20478;-68
2024/04/25 10:03:42;;;;;;;1.73;1.03;;;23.60;52.00;;;;;;5489200;26;20959;-68
2024/04/25 10:06:08;;;;;;;1.60;1.00;;;23.60;52.00;;;;;;5489736;26;20532;-68
2024/04/25 10:08:35;;;;;;;1.73;1.03;;;23.60;52.10;;;;;;5458084;26;20467;-69
2024/04/25 10:11:01;;;;;;;2.17;1.20;;;23.60;52.00;;;;;;5490043;26;20573;-69
2024/04/25 10:13:26;;;;;;;1.63;1.10;;;23.60;52.00;;;;;;5490177;26;20443;-69
2024/04/25 10:15:52;;;;;;;2.27;1.23;;;23.60;52.00;;;;;;5490147;26;20273;-68
2024/04/25 10:18:18;;;;;;;1.60;1.10;;;23.60;52.00;;;;;;5490032;26;20615;-68
2024/04/25 10:20:46;;;;;;;2.43;1.27;;;23.60;52.00;;;;;;5488863;26;20222;-68
2024/04/25 10:23:11;;;;;;;1.80;1.10;;;23.60;52.00;;;;;;5488118;26;20564;-69
2024/04/25 10:25:37;;;;;;;1.80;1.40;;;23.60;52.00;;;;;;5489284;26;20459;-69
2024/04/25 10:28:05;;;;;;;1.90;1.20;;;23.60;52.00;;;;;;5488551;26;20230;-69
2024/04/25 10:30:32;;;;;;;1.70;1.10;;;23.60;52.00;;;;;;5488521;26;20763;-68
2024/04/25 10:32:59;;;;;;;3.23;1.30;;;23.60;52.00;;;;;;5487760;26;20530;-69
2024/04/25 10:35:25;;;;;;;4.37;1.10;;;23.60;52.00;;;;;;5487952;26;20447;-68
2024/04/25 10:37:52;;;;;;;1.97;1.00;;;23.60;52.00;;;;;;5488277;26;20546;-68
2024/04/25 10:40:20;;;;;;;1.60;1.30;;;23.60;52.00;;;;;;5488483;26;20234;-69
2024/04/25 10:42:59;;;;;;;2.53;1.30;;;23.60;52.00;;;;;;5488443;26;21044;-69
2024/04/25 10:45:29;;;;;;;2.60;1.27;;;23.60;52.00;;;;;;5487898;26;20475;-69
2024/04/25 10:47:55;;;;;;;1.73;1.20;;;23.60;52.00;;;;;;5487931;26;20443;-68
2024/04/25 10:50:21;;;;;;;2.33;1.30;;;23.60;52.00;;;;;;5488097;26;20558;-69
2024/04/25 10:52:49;;;;;;;4.13;1.50;;;23.60;51.90;;;;;;5487835;26;20451;-69
2024/04/25 10:55:15;;;;;;;3.33;2.30;;;23.60;51.90;;;;;;5487737;26;20776;-68
2024/04/25 10:57:40;;;;;;;4.97;3.10;;;23.60;51.90;;;;;;5487764;26;20455;-69
2024/04/25 11:00:07;;;;;;;7.70;2.97;;;23.60;51.90;;;;;;5487810;26;20444;-69
2024/04/25 11:02:38;;;;;;;6.73;2.70;;;23.60;51.90;;;;;;5487626;26;20230;-68
2024/04/25 11:05:04;;;;;;;4.50;2.90;;;23.60;51.90;;;;;;5487834;26;20522;-69
2024/04/25 11:07:30;;;;;;;10.40;3.63;;;23.60;51.90;;;;;;5487766;26;20444;-68
2024/04/25 11:09:56;;;;;;;10.33;4.60;;;23.60;51.90;;;;;;5487677;26;20579;-65
2024/04/25 11:12:22;;;;;;;10.73;4.07;;;23.60;51.90;;;;;;5487422;26;20459;-69
2024/04/25 11:14:48;;;;;;;9.60;4.73;;;23.60;51.90;;;;;;5455316;26;20234;-69
2024/04/25 11:17:14;;;;;;;11.80;6.57;;;23.60;51.90;;;;;;5487105;26;20447;-69
2024/04/25 11:19:41;;;;;;;12.60;6.57;;;23.60;52.00;;;;;;5473159;26;20460;-69
2024/04/25 11:22:07;;;;;;;12.77;7.30;;;23.60;52.10;;;;;;5420199;26;21104;-68
2024/04/25 11:24:32;;;;;;;18.97;9.57;;;23.60;52.00;;;;;;5414891;26;20446;-69
2024/04/25 11:26:58;;;;;;;16.50;9.93;;;23.60;52.00;;;;;;5414754;26;20274;-68
2024/04/25 11:29:24;;;;;;;25.63;12.63;;;23.60;52.00;;;;;;5415614;26;20236;-70
2024/04/25 11:31:50;;;;;;;32.43;17.40;;;23.50;51.90;;;;;;5450728;26;20231;-68
2024/04/25 11:34:20;;;;;;;42.23;20.57;;;23.50;51.90;;;;;;5442723;26;20225;-69
2024/04/25 11:37:15;;;;;;;43.13;24.07;;;23.60;52.00;;;;;;5413517;26;20262;-69
2024/04/25 11:39:51;;;;;;;49.67;26.97;;;23.50;51.90;;;;;;5398875;26;21248;-68
2024/04/25 11:42:17;;;;;;;52.03;29.93;;;23.50;52.00;;;;;;5414512;26;20494;-69
2024/04/25 11:44:43;;;;;;;56.43;33.27;;;23.50;52.00;;;;;;5416747;26;20450;-69
2024/04/25 11:47:09;;;;;;;67.80;34.53;;;23.50;52.00;;;;;;5442886;26;20299;-68
2024/04/25 11:49:35;;;;;;;61.73;34.13;;;23.50;52.00;;;;;;5450012;26;20525;-69
2024/04/25 11:52:01;;;;;;;64.30;34.67;;;23.50;52.00;;;;;;5450321;26;20429;-70
2024/04/25 11:54:26;;;;;;;62.27;36.00;;;23.50;52.00;;;;;;5448079;26;20261;-68
2024/04/25 11:56:52;;;;;;;52.37;36.10;;;23.50;52.00;;;;;;5442747;26;20217;-68
2024/04/25 11:59:17;;;;;;;70.30;36.93;;;23.50;52.00;;;;;;5414200;26;20225;-67
2024/04/25 12:01:43;;;;;;;67.70;37.53;;;23.50;52.00;;;;;;5414275;26;20321;-68
2024/04/25 12:04:10;;;;;;;65.10;37.90;;;23.50;52.00;;;;;;5414617;26;20220;-67
2024/04/25 12:06:35;;;;;;;70.97;38.97;;;23.50;52.00;;;;;;5447529;26;20230;-69
2024/04/25 12:09:01;;;;;;;62.60;38.67;;;23.50;52.00;;;;;;5446003;26;20527;-67
2024/04/25 12:11:29;;;;;;;69.80;38.17;;;23.50;52.00;;;;;;5450329;26;20709;-69
2024/04/25 12:13:55;;;;;;;67.37;38.10;;;23.50;52.10;;;;;;5450195;26;20302;-68
2024/04/25 12:16:20;;;;;;;70.67;40.03;;;23.50;52.10;;;;;;5447362;26;20503;-69
2024/04/25 12:18:46;;;;;;;68.53;41.20;;;23.50;52.10;;;;;;5414493;26;20470;-68
2024/04/25 12:21:12;;;;;;;77.03;41.30;;;23.50;52.10;;;;;;5414272;26;20321;-69
2024/04/25 12:23:37;;;;;;;80.40;42.13;;;23.40;52.10;;;;;;5413903;26;20779;-69
2024/04/25 12:26:03;;;;;;;69.10;41.17;;;23.40;52.10;;;;;;5414244;26;20236;-69
2024/04/25 12:28:32;;;;;;;69.73;39.03;;;23.50;52.20;;;;;;5414259;26;20236;-69
2024/04/25 12:30:58;;;;;;;71.37;39.53;;;23.50;52.20;;;;;;5428829;26;20804;-67
2024/04/25 12:33:23;;;;;;;66.27;37.23;;;23.40;52.10;;;;;;5435375;26;20574;-69
2024/04/25 12:35:49;;;;;;;66.77;36.83;;;23.40;52.10;;;;;;5443837;26;20231;-69
2024/04/25 12:38:15;;;;;;;63.67;35.73;;;23.40;52.00;;;;;;5486183;26;20749;-68
2024/04/25 12:40:40;;;;;;;67.90;38.67;;;23.40;52.00;;;;;;5486101;26;20218;-69
2024/04/25 12:43:08;;;;;;;71.37;38.50;;;23.40;52.00;;;;;;5486072;26;20257;-69
2024/04/25 12:45:34;;;;;;;64.13;36.87;;;23.40;52.00;;;;;;5453839;26;20228;-68